Time;durP1;ratioP1;P1;durP2;ratioP2;P2;SDS_P1;SDS_P2;PMS_P1;PMS_P2;Temp;Humidity;BMP_temperature;BMP_pressure;BME280_temperature;BME280_humidity;BME280_pressure;Samples;Min_cycle;Max_cycle;Signal;HPM_P1;HPM_P2
2023/01/13 00:02:12;;;;;;;5.22;1.08;;;10.20;99.90;;;;;;5072713;28;20035;-50
2023/01/13 00:04:37;;;;;;;2.42;1.10;;;10.30;99.90;;;;;;5073658;28;20021;-52
2023/01/13 00:07:03;;;;;;;2.38;0.88;;;10.30;99.90;;;;;;5073563;28;20024;-52
2023/01/13 00:09:28;;;;;;;5.63;1.00;;;10.30;99.90;;;;;;5073843;28;20024;-53
2023/01/13 00:11:55;;;;;;;6.07;1.20;;;10.30;99.90;;;;;;5091400;28;20021;-50
2023/01/13 00:14:20;;;;;;;3.30;0.88;;;10.30;99.90;;;;;;5091581;28;20387;-51
2023/01/13 00:16:46;;;;;;;3.70;1.20;;;10.40;99.90;;;;;;5073547;28;20028;-53
2023/01/13 00:19:11;;;;;;;1.95;0.90;;;10.40;99.90;;;;;;5091688;28;20036;-52
2023/01/13 00:21:37;;;;;;;1.08;0.65;;;10.40;99.90;;;;;;5091677;28;20031;-51
2023/01/13 00:24:03;;;;;;;5.43;0.80;;;10.50;99.90;;;;;;5072631;28;20020;-52
2023/01/13 00:26:34;;;;;;;1.23;0.77;;;10.40;99.90;;;;;;5091519;28;20488;-53
2023/01/13 00:29:00;;;;;;;0.98;0.73;;;10.40;99.90;;;;;;5091192;28;20552;-50
2023/01/13 00:31:27;;;;;;;5.75;0.77;;;10.50;99.90;;;;;;5091579;28;20024;-52
2023/01/13 00:33:55;;;;;;;1.48;0.80;;;10.40;99.90;;;;;;5090589;28;20024;-54
2023/01/13 00:36:21;;;;;;;1.42;0.60;;;10.50;99.90;;;;;;5091421;28;20028;-55
2023/01/13 00:38:47;;;;;;;4.05;0.77;;;10.50;99.90;;;;;;5091385;28;20031;-51
2023/01/13 00:41:15;;;;;;;1.48;0.70;;;10.50;99.90;;;;;;5091751;28;20059;-48
2023/01/13 00:43:41;;;;;;;3.47;1.00;;;10.50;99.90;;;;;;5091628;28;20031;-49
2023/01/13 00:46:09;;;;;;;0.88;0.60;;;10.60;99.90;;;;;;5074074;28;20017;-46
2023/01/13 00:48:36;;;;;;;4.40;1.75;;;10.50;99.90;;;;;;5093385;28;20032;-49
2023/01/13 00:51:03;;;;;;;2.28;0.93;;;10.50;99.90;;;;;;5053553;28;20376;-50
2023/01/13 00:53:32;;;;;;;0.50;0.50;;;10.50;99.90;;;;;;5069512;28;20512;-48
2023/01/13 00:56:04;;;;;;;1.17;0.70;;;10.60;99.90;;;;;;5073816;28;20028;-47
2023/01/13 00:58:34;;;;;;;4.22;0.93;;;10.60;99.90;;;;;;5073378;28;20033;-50
2023/01/13 01:01:05;;;;;;;1.02;0.77;;;10.60;99.90;;;;;;5073235;28;20104;-51
2023/01/13 01:03:31;;;;;;;1.85;0.93;;;10.60;99.90;;;;;;5072857;28;20035;-46
2023/01/13 01:06:04;;;;;;;3.15;0.98;;;10.60;99.90;;;;;;5071456;28;20533;-52
2023/01/13 01:08:29;;;;;;;1.83;0.60;;;10.60;99.90;;;;;;5074466;28;20046;-50
2023/01/13 01:11:08;;;;;;;2.10;0.75;;;10.60;99.90;;;;;;5056885;28;20566;-50
2023/01/13 01:13:34;;;;;;;1.48;0.70;;;10.60;99.90;;;;;;5074195;28;20583;-49
2023/01/13 01:16:09;;;;;;;0.80;0.60;;;10.60;99.90;;;;;;5075398;28;20043;-48
2023/01/13 01:18:38;;;;;;;4.38;0.88;;;10.60;99.90;;;;;;5074751;28;20023;-46
2023/01/13 01:21:04;;;;;;;3.95;1.25;;;10.60;99.90;;;;;;5074319;28;20040;-49
2023/01/13 01:23:31;;;;;;;0.75;0.60;;;10.70;99.90;;;;;;5114018;22;20117;-47
2023/01/13 01:26:09;;;;;;;2.25;0.85;;;10.70;99.90;;;;;;5094388;28;20091;-48
2023/01/13 01:28:34;;;;;;;2.03;0.70;;;10.70;99.90;;;;;;5094605;28;20052;-51
2023/01/13 01:31:08;;;;;;;2.53;1.05;;;10.70;99.90;;;;;;5076471;28;20513;-48
2023/01/13 01:33:33;;;;;;;1.02;0.73;;;10.70;99.90;;;;;;5094337;28;20094;-49
2023/01/13 01:36:03;;;;;;;4.60;0.70;;;10.60;99.90;;;;;;5094797;28;20430;-47
2023/01/13 01:38:29;;;;;;;3.75;0.93;;;10.70;99.90;;;;;;5094425;28;20043;-49
2023/01/13 01:40:55;;;;;;;1.33;0.90;;;10.70;99.90;;;;;;5094242;28;20062;-47
2023/01/13 01:46:06;;;;;;;4.47;0.98;;;10.70;99.90;;;;;;5094565;28;20104;-46
2023/01/13 01:48:38;;;;;;;0.75;0.70;;;10.70;99.90;;;;;;5094877;28;20464;-48
2023/01/13 01:51:06;;;;;;;2.03;0.73;;;10.70;99.90;;;;;;5094378;28;20102;-49
2023/01/13 01:53:32;;;;;;;3.28;1.13;;;10.80;99.90;;;;;;5093702;28;20097;-47
2023/01/13 01:55:59;;;;;;;2.38;0.85;;;10.80;99.90;;;;;;5094101;28;20024;-48
2023/01/13 01:58:34;;;;;;;1.95;1.02;;;10.80;99.90;;;;;;5094268;28;20055;-50
2023/01/13 02:01:00;;;;;;;2.30;0.80;;;10.80;99.90;;;;;;5093874;28;20137;-49
2023/01/13 02:03:25;;;;;;;2.85;1.02;;;10.80;99.90;;;;;;5091837;28;20122;-50
2023/01/13 02:05:51;;;;;;;1.73;1.10;;;10.80;99.90;;;;;;5091685;28;20024;-49
2023/01/13 02:08:18;;;;;;;1.45;0.60;;;10.80;99.90;;;;;;5093983;28;20035;-49
2023/01/13 02:10:47;;;;;;;1.05;0.55;;;10.80;99.90;;;;;;5093768;28;20073;-47
2023/01/13 02:13:13;;;;;;;0.88;0.55;;;10.80;99.90;;;;;;5093293;28;20124;-49
2023/01/13 02:16:10;;;;;;;1.67;0.60;;;10.80;99.90;;;;;;5093982;28;20060;-50
2023/01/13 02:19:01;;;;;;;0.50;0.38;;;10.70;99.90;;;;;;5094357;28;20096;-47
2023/01/13 02:21:35;;;;;;;4.10;0.60;;;10.80;99.90;;;;;;5094635;28;20020;-52
2023/01/13 02:25:02;;;;;;;1.80;0.95;;;10.80;99.90;;;;;;5075975;28;20032;-53
2023/01/13 02:27:52;;;;;;;0.57;0.50;;;10.80;99.90;;;;;;5007140;28;20038;-51
2023/01/13 02:33:35;;;;;;;4.10;0.47;;;10.80;99.90;;;;;;5092787;28;20423;-54
2023/01/13 02:36:09;;;;;;;1.00;0.77;;;10.80;99.90;;;;;;5093119;28;20183;-52
2023/01/13 02:38:44;;;;;;;1.90;0.82;;;10.80;99.90;;;;;;5093281;28;20038;-52
2023/01/13 02:44:05;;;;;;;0.47;0.47;;;10.80;99.90;;;;;;5092464;28;20070;-53
2023/01/13 02:46:38;;;;;;;0.63;0.50;;;10.90;99.90;;;;;;5092798;28;20115;-52
2023/01/13 02:49:07;;;;;;;1.13;0.60;;;10.90;99.90;;;;;;5093172;28;20024;-51
2023/01/13 02:51:34;;;;;;;2.60;0.70;;;11.00;99.90;;;;;;5092847;28;20024;-52
2023/01/13 02:54:20;;;;;;;2.85;0.60;;;11.00;99.90;;;;;;5092306;28;20053;-54
2023/01/13 02:56:49;;;;;;;1.70;0.98;;;11.00;99.90;;;;;;5092678;28;20027;-49
2023/01/13 02:59:16;;;;;;;1.38;0.73;;;11.00;99.90;;;;;;5092745;28;20407;-50
2023/01/13 03:01:42;;;;;;;0.65;0.60;;;10.90;99.90;;;;;;5074418;28;20028;-50
2023/01/13 03:04:34;;;;;;;1.95;0.68;;;10.90;99.90;;;;;;5092165;28;20023;-50
2023/01/13 03:07:27;;;;;;;0.50;0.50;;;10.90;99.90;;;;;;5092227;28;20028;-52
2023/01/13 03:10:20;;;;;;;0.55;0.55;;;10.80;99.90;;;;;;5073679;28;20564;-47
2023/01/13 03:13:13;;;;;;;2.30;0.77;;;10.90;99.90;;;;;;5073313;28;20077;-52
2023/01/13 03:15:46;;;;;;;2.28;0.80;;;10.80;99.90;;;;;;5092331;28;20024;-49
2023/01/13 03:18:35;;;;;;;2.08;0.40;;;10.90;99.90;;;;;;5074028;28;20031;-48
2023/01/13 03:21:25;;;;;;;0.40;0.40;;;10.90;99.90;;;;;;5092433;28;20020;-47
2023/01/13 03:24:18;;;;;;;1.38;0.75;;;10.80;99.90;;;;;;5091375;28;20085;-49
2023/01/13 03:26:49;;;;;;;0.85;0.57;;;10.90;99.90;;;;;;5092146;28;20024;-49
2023/01/13 03:29:23;;;;;;;2.55;0.57;;;10.90;99.90;;;;;;5092400;28;20024;-50
2023/01/13 03:32:18;;;;;;;2.72;0.50;;;10.90;99.90;;;;;;5073587;28;20027;-48
2023/01/13 03:34:52;;;;;;;0.65;0.65;;;11.00;99.90;;;;;;5092486;28;20032;-48
2023/01/13 03:37:23;;;;;;;0.80;0.45;;;11.00;99.90;;;;;;5091977;28;20073;-49
2023/01/13 03:39:56;;;;;;;0.43;0.43;;;10.90;99.90;;;;;;5092051;28;20048;-50
2023/01/13 03:42:29;;;;;;;1.67;0.55;;;11.00;99.90;;;;;;5091237;28;20032;-49
2023/01/13 03:45:04;;;;;;;1.25;0.73;;;11.00;99.90;;;;;;5092289;28;20020;-51
2023/01/13 03:47:32;;;;;;;0.88;0.50;;;11.00;99.90;;;;;;5091762;28;20016;-49
2023/01/13 03:50:09;;;;;;;0.70;0.40;;;11.00;99.90;;;;;;5091948;28;20081;-49
2023/01/13 03:52:39;;;;;;;0.30;0.30;;;11.00;99.90;;;;;;5072835;28;20028;-49
2023/01/13 03:55:23;;;;;;;1.70;1.20;;;11.00;99.90;;;;;;5091822;28;20441;-52
2023/01/13 03:58:12;;;;;;;0.30;0.30;;;11.00;99.90;;;;;;5091789;28;20020;-50
2023/01/13 04:00:54;;;;;;;0.43;0.40;;;11.00;99.90;;;;;;5091843;28;20020;-49
2023/01/13 04:03:37;;;;;;;0.38;0.30;;;11.00;99.90;;;;;;5074484;28;20556;-48
2023/01/13 04:06:39;;;;;;;1.38;0.47;;;11.10;99.90;;;;;;5090369;28;20024;-48
2023/01/13 04:09:12;;;;;;;2.17;0.35;;;11.10;99.90;;;;;;5092058;28;20476;-51
2023/01/13 04:11:43;;;;;;;0.30;0.30;;;11.10;99.90;;;;;;5091696;28;20446;-50
2023/01/13 04:14:10;;;;;;;0.40;0.20;;;11.10;99.90;;;;;;5089635;28;20035;-48
2023/01/13 04:16:36;;;;;;;0.63;0.38;;;11.00;99.90;;;;;;5091589;28;20036;-51
2023/01/13 04:19:02;;;;;;;0.30;0.30;;;11.10;99.90;;;;;;5092095;28;20085;-48
2023/01/13 04:21:29;;;;;;;0.28;0.28;;;11.10;99.90;;;;;;5091824;28;20032;-52
2023/01/13 04:23:55;;;;;;;0.30;0.30;;;11.10;99.90;;;;;;5090866;28;20297;-49
2023/01/13 04:26:22;;;;;;;0.30;0.30;;;11.10;99.90;;;;;;5091684;28;20016;-52
2023/01/13 04:28:48;;;;;;;0.80;0.73;;;11.10;99.90;;;;;;5094750;28;20047;-48
2023/01/13 04:31:13;;;;;;;0.85;0.30;;;11.10;99.90;;;;;;5095859;28;20059;-52
2023/01/13 04:33:39;;;;;;;0.30;0.30;;;11.10;99.90;;;;;;5095178;28;20058;-50
2023/01/13 04:36:04;;;;;;;1.48;0.32;;;11.10;99.90;;;;;;5095480;28;20028;-47
2023/01/13 04:38:30;;;;;;;1.00;0.30;;;11.10;99.90;;;;;;5095637;28;20093;-51
2023/01/13 04:40:55;;;;;;;0.70;0.43;;;11.10;99.90;;;;;;5095658;28;20024;-51
2023/01/13 04:43:21;;;;;;;2.53;0.28;;;11.10;99.90;;;;;;5094310;28;20039;-46
2023/01/13 04:45:46;;;;;;;0.63;0.30;;;11.10;99.90;;;;;;5095483;28;20403;-48
2023/01/13 04:48:12;;;;;;;0.38;0.38;;;11.10;99.90;;;;;;5095330;28;20407;-53
2023/01/13 04:50:38;;;;;;;0.30;0.30;;;11.10;99.90;;;;;;5095594;28;20499;-48
2023/01/13 04:53:04;;;;;;;0.40;0.40;;;11.10;99.90;;;;;;5094577;28;20027;-51
2023/01/13 04:55:30;;;;;;;0.32;0.32;;;11.10;99.90;;;;;;5095239;28;20026;-48
2023/01/13 04:58:01;;;;;;;0.43;0.40;;;11.10;99.90;;;;;;5095119;28;20105;-47
2023/01/13 05:00:26;;;;;;;0.32;0.32;;;11.10;99.90;;;;;;5095279;28;20024;-48
2023/01/13 05:02:52;;;;;;;0.25;0.25;;;11.10;99.90;;;;;;5094346;28;20038;-51
2023/01/13 05:05:17;;;;;;;1.27;0.40;;;11.10;99.90;;;;;;5076140;28;20481;-49
2023/01/13 05:07:43;;;;;;;0.22;0.22;;;11.10;99.90;;;;;;5095052;28;20070;-52
2023/01/13 05:10:09;;;;;;;0.40;0.40;;;11.10;99.90;;;;;;5094963;28;20099;-48
2023/01/13 05:18:04;;;;;;;1.25;0.32;;;11.10;99.90;;;;;;5095615;28;20031;-50
2023/01/13 05:20:29;;;;;;;0.40;0.35;;;11.10;99.90;;;;;;5076916;28;20631;-53
2023/01/13 05:25:42;;;;;;;0.40;0.40;;;11.00;99.90;;;;;;5095012;28;20031;-49
2023/01/13 05:28:08;;;;;;;0.70;0.68;;;10.90;99.90;;;;;;5076839;28;20024;-46
2023/01/13 05:30:42;;;;;;;1.55;0.35;;;10.80;99.90;;;;;;5077056;28;20043;-50
2023/01/13 05:33:13;;;;;;;0.85;0.60;;;10.80;99.90;;;;;;5094074;28;20077;-50
2023/01/13 05:35:40;;;;;;;0.40;0.40;;;10.80;99.90;;;;;;5076464;28;20020;-51
2023/01/13 05:38:07;;;;;;;1.95;0.65;;;10.70;99.90;;;;;;5076502;28;20077;-49
2023/01/13 05:43:20;;;;;;;0.50;0.50;;;10.70;99.90;;;;;;5094079;28;20043;-53
2023/01/13 05:45:46;;;;;;;1.55;0.50;;;10.60;99.90;;;;;;5076398;28;20407;-49
2023/01/13 05:48:12;;;;;;;1.35;0.30;;;10.60;99.90;;;;;;5094072;28;20024;-51
2023/01/13 05:50:38;;;;;;;0.68;0.68;;;10.60;99.90;;;;;;5094900;28;20539;-49
2023/01/13 05:53:04;;;;;;;7.53;2.53;;;10.60;99.90;;;;;;5093650;28;20027;-48
2023/01/13 05:55:30;;;;;;;0.68;0.60;;;10.60;99.90;;;;;;5076482;28;20020;-47
2023/01/13 05:57:55;;;;;;;1.15;0.80;;;10.50;99.90;;;;;;5094575;28;20028;-51
2023/01/13 06:00:21;;;;;;;2.25;0.85;;;10.40;99.90;;;;;;5096370;28;20074;-49
2023/01/13 06:02:46;;;;;;;3.17;0.50;;;10.30;99.90;;;;;;5098289;28;20026;-49
2023/01/13 06:05:12;;;;;;;8.45;1.83;;;10.30;99.90;;;;;;5097401;28;20024;-52
2023/01/13 06:07:38;;;;;;;2.97;0.80;;;10.30;99.90;;;;;;5099190;28;20399;-51
2023/01/13 06:10:04;;;;;;;6.22;1.13;;;10.30;99.90;;;;;;5078474;28;20050;-55
2023/01/13 06:12:29;;;;;;;4.22;0.73;;;10.20;99.90;;;;;;5093836;28;20488;-50
2023/01/13 06:14:55;;;;;;;1.70;0.55;;;10.10;99.90;;;;;;5094709;28;20051;-50
2023/01/13 06:17:20;;;;;;;0.40;0.40;;;10.00;99.90;;;;;;5094512;28;20392;-51
2023/01/13 06:19:46;;;;;;;0.30;0.30;;;9.90;99.90;;;;;;5076493;28;20406;-50
2023/01/13 06:22:15;;;;;;;0.77;0.32;;;9.90;99.90;;;;;;5093508;28;20038;-49
2023/01/13 06:24:41;;;;;;;0.80;0.30;;;9.80;99.90;;;;;;5094477;28;20452;-50
2023/01/13 06:27:07;;;;;;;2.83;0.45;;;9.80;99.90;;;;;;5094316;28;20028;-48
2023/01/13 06:29:33;;;;;;;1.48;0.50;;;9.70;99.90;;;;;;5094197;28;20028;-51
2023/01/13 06:32:05;;;;;;;6.03;0.82;;;9.60;99.90;;;;;;5092753;28;20028;-51
2023/01/13 06:34:32;;;;;;;1.58;0.60;;;9.60;99.90;;;;;;5093739;28;20012;-51
2023/01/13 06:36:58;;;;;;;0.47;0.40;;;9.60;99.90;;;;;;5093476;28;20052;-52
2023/01/13 06:39:29;;;;;;;1.67;0.40;;;9.60;99.90;;;;;;5075306;28;20056;-53
2023/01/13 06:44:39;;;;;;;1.38;0.40;;;9.50;99.90;;;;;;5093281;28;20093;-54
2023/01/13 06:47:05;;;;;;;1.45;0.35;;;9.50;99.90;;;;;;5093243;28;20059;-50
2023/01/13 06:49:31;;;;;;;2.92;0.50;;;9.40;99.90;;;;;;5092878;28;20024;-47
2023/01/13 06:51:56;;;;;;;0.32;0.32;;;9.40;99.90;;;;;;5091095;28;20529;-49
2023/01/13 06:54:21;;;;;;;1.55;0.50;;;9.30;99.90;;;;;;5092620;28;20039;-47
2023/01/13 06:56:47;;;;;;;0.50;0.20;;;9.40;99.90;;;;;;5092543;28;20024;-48
2023/01/13 06:59:12;;;;;;;2.92;0.77;;;9.40;99.90;;;;;;5092902;28;20400;-49
2023/01/13 07:01:38;;;;;;;1.10;0.40;;;9.30;99.90;;;;;;5092707;28;20096;-48
2023/01/13 07:04:04;;;;;;;1.65;0.40;;;9.30;99.90;;;;;;5091766;28;20040;-49
2023/01/13 07:06:29;;;;;;;2.00;0.45;;;9.20;99.90;;;;;;5092027;28;20024;-51
2023/01/13 07:08:55;;;;;;;1.38;1.05;;;9.10;99.90;;;;;;5092412;28;20028;-51
2023/01/13 07:11:20;;;;;;;2.75;0.32;;;9.20;99.90;;;;;;5092476;28;20020;-49
2023/01/13 07:16:30;;;;;;;2.88;0.55;;;9.10;99.90;;;;;;5092469;28;20039;-49
2023/01/13 07:18:55;;;;;;;1.48;0.50;;;9.20;99.90;;;;;;5074093;28;20032;-47
2023/01/13 07:21:21;;;;;;;0.43;0.40;;;9.20;99.90;;;;;;5092232;28;20380;-49
2023/01/13 07:23:47;;;;;;;2.20;0.68;;;9.30;99.90;;;;;;5085114;22;20045;-43
2023/01/13 07:26:14;;;;;;;0.40;0.40;;;9.30;99.90;;;;;;5052186;28;20028;-42
2023/01/13 07:28:40;;;;;;;3.03;0.38;;;9.30;99.90;;;;;;5052351;28;20029;-42
2023/01/13 07:31:13;;;;;;;0.55;0.30;;;9.40;99.90;;;;;;5052338;28;20024;-42
2023/01/13 07:33:39;;;;;;;0.52;0.50;;;9.40;99.90;;;;;;5051750;28;20499;-42
2023/01/13 07:36:05;;;;;;;1.27;0.40;;;9.40;99.90;;;;;;5051949;28;20033;-42
2023/01/13 07:38:32;;;;;;;0.40;0.40;;;9.30;99.90;;;;;;5051894;28;20029;-43
2023/01/13 07:43:30;;;;;;;0.20;0.20;;;9.20;99.90;;;;;;5052108;28;20021;-46
2023/01/13 07:43:43;;;;;;;;;;;9.20;99.90;;;;;;5051949;28;20041;-43
2023/01/13 07:46:09;;;;;;;2.30;0.60;;;9.10;99.90;;;;;;5052071;28;19912;-42
2023/01/13 07:48:34;;;;;;;2.40;0.75;;;9.10;99.90;;;;;;5051911;28;20040;-41
2023/01/13 07:51:06;;;;;;;0.75;0.45;;;9.20;99.90;;;;;;5051687;28;20456;-45
2023/01/13 07:53:32;;;;;;;0.77;0.77;;;9.10;99.90;;;;;;5051010;28;20064;-42
2023/01/13 07:55:58;;;;;;;1.50;0.50;;;9.00;99.90;;;;;;5051571;28;20063;-46
2023/01/13 07:58:25;;;;;;;0.52;0.30;;;9.00;99.90;;;;;;5051831;28;20032;-43
2023/01/13 08:00:51;;;;;;;0.85;0.35;;;9.00;99.90;;;;;;5051397;28;20033;-41
2023/01/13 08:03:16;;;;;;;0.32;0.32;;;9.00;99.90;;;;;;5050923;28;20029;-42
2023/01/13 08:05:42;;;;;;;0.40;0.40;;;8.90;99.90;;;;;;5049882;28;20476;-42
2023/01/13 08:08:08;;;;;;;2.45;0.40;;;8.90;99.90;;;;;;5051836;28;20029;-41
2023/01/13 08:10:33;;;;;;;0.20;0.20;;;8.90;99.90;;;;;;5051433;28;20060;-43
2023/01/13 08:13:17;;;;;;;0.35;0.32;;;9.00;99.90;;;;;;5050754;28;20031;-43
2023/01/13 08:15:43;;;;;;;2.47;0.70;;;9.00;99.90;;;;;;5052773;28;20027;-42
2023/01/13 08:18:09;;;;;;;2.00;0.68;;;9.10;99.90;;;;;;5052052;28;20024;-42
2023/01/13 08:20:34;;;;;;;1.45;0.70;;;9.10;99.90;;;;;;5051448;28;20095;-43
2023/01/13 08:23:00;;;;;;;4.60;0.70;;;9.20;99.90;;;;;;5032670;28;20315;-40
2023/01/13 08:25:27;;;;;;;3.40;0.50;;;9.20;99.90;;;;;;5051495;28;20025;-44
2023/01/13 08:27:54;;;;;;;3.83;0.65;;;9.20;99.90;;;;;;5051308;28;20021;-46
2023/01/13 08:30:20;;;;;;;2.53;0.60;;;9.30;99.90;;;;;;5051520;28;20032;-41
2023/01/13 08:32:49;;;;;;;2.47;0.95;;;9.30;99.90;;;;;;5048398;28;20024;-41
2023/01/13 08:35:16;;;;;;;3.13;0.55;;;9.30;99.90;;;;;;5050434;28;20400;-41
2023/01/13 08:37:42;;;;;;;1.40;0.57;;;9.30;99.90;;;;;;5051176;28;20060;-41
2023/01/13 08:40:09;;;;;;;3.78;0.50;;;9.30;99.90;;;;;;5051154;28;20086;-40
2023/01/13 08:42:35;;;;;;;1.52;0.70;;;9.40;99.90;;;;;;5024202;28;20489;-42
2023/01/13 08:45:00;;;;;;;1.20;0.70;;;9.40;99.90;;;;;;5050968;28;20074;-42
2023/01/13 08:47:27;;;;;;;1.98;1.25;;;9.40;99.90;;;;;;5049382;28;20035;-44
2023/01/13 08:49:53;;;;;;;2.50;0.80;;;9.40;99.90;;;;;;5050787;28;20017;-41
2023/01/13 08:52:18;;;;;;;4.00;0.70;;;9.40;99.90;;;;;;5051033;28;20029;-41
2023/01/13 08:54:44;;;;;;;0.90;0.50;;;9.50;99.90;;;;;;5033479;28;20072;-41
2023/01/13 08:57:09;;;;;;;1.77;0.75;;;9.40;99.90;;;;;;5051037;28;20029;-42
2023/01/13 08:59:35;;;;;;;4.40;0.80;;;9.40;99.90;;;;;;5051246;28;20455;-42
2023/01/13 09:02:00;;;;;;;1.80;0.60;;;9.40;99.90;;;;;;5050000;28;20029;-44
2023/01/13 09:04:27;;;;;;;1.63;0.60;;;9.40;99.90;;;;;;5050493;28;20025;-42
2023/01/13 09:06:54;;;;;;;5.93;0.85;;;9.90;99.90;;;;;;5051035;28;20025;-42
2023/01/13 09:09:21;;;;;;;1.98;0.60;;;10.60;99.90;;;;;;5049214;28;20047;-43
2023/01/13 09:14:36;;;;;;;2.60;0.70;;;11.60;99.90;;;;;;5051885;28;20087;-42
2023/01/13 09:17:02;;;;;;;3.83;1.10;;;11.80;99.90;;;;;;5037618;28;20033;-40
2023/01/13 09:19:28;;;;;;;7.65;1.00;;;11.80;99.90;;;;;;5034656;28;20025;-42
2023/01/13 09:21:55;;;;;;;0.95;0.70;;;11.50;99.90;;;;;;5034661;28;20030;-40
2023/01/13 09:24:21;;;;;;;1.98;0.70;;;11.30;99.90;;;;;;5034587;28;20041;-39
2023/01/13 09:26:47;;;;;;;1.35;0.50;;;11.20;99.90;;;;;;5034769;28;20029;-40
2023/01/13 09:29:13;;;;;;;3.88;0.70;;;11.20;99.90;;;;;;5051624;28;20033;-43
2023/01/13 09:31:40;;;;;;;1.42;0.90;;;11.30;99.90;;;;;;5055611;28;20029;-42
2023/01/13 09:36:50;;;;;;;2.70;0.63;;;12.20;99.90;;;;;;5054520;28;20035;-44
2023/01/13 09:39:16;;;;;;;3.35;0.80;;;12.30;99.90;;;;;;5054278;28;20481;-41
2023/01/13 09:44:57;;;;;;;2.88;0.80;;;13.10;99.90;;;;;;5055096;28;20059;-41
2023/01/13 09:47:39;;;;;;;2.50;1.08;;;13.80;99.90;;;;;;5053899;28;20037;-45
2023/01/13 09:50:30;;;;;;;2.35;0.90;;;14.40;99.90;;;;;;5054129;28;20028;-44
2023/01/13 09:52:56;;;;;;;1.75;0.52;;;14.70;99.90;;;;;;5053593;28;20025;-45
2023/01/13 09:55:25;;;;;;;3.30;0.77;;;14.90;99.90;;;;;;5053914;28;20104;-42
2023/01/13 09:57:50;;;;;;;2.45;0.70;;;14.80;99.90;;;;;;5036168;28;20025;-40
2023/01/13 10:00:26;;;;;;;2.13;1.00;;;14.70;99.90;;;;;;5053711;28;20074;-41
2023/01/13 10:03:21;;;;;;;2.45;0.73;;;14.70;99.90;;;;;;5052145;28;20396;-45
2023/01/13 10:05:49;;;;;;;5.72;0.82;;;15.00;99.90;;;;;;5046339;28;20427;-42
2023/01/13 10:08:21;;;;;;;2.17;0.70;;;14.90;99.90;;;;;;5053868;28;20021;-42
2023/01/13 10:10:57;;;;;;;4.93;1.60;;;15.00;99.90;;;;;;5034748;28;20025;-44
2023/01/13 10:13:26;;;;;;;3.33;1.23;;;15.00;99.90;;;;;;5032639;28;20033;-48
2023/01/13 10:15:58;;;;;;;2.50;0.73;;;15.10;99.90;;;;;;5043652;28;20029;-40
2023/01/13 10:18:58;;;;;;;4.03;0.90;;;15.30;99.90;;;;;;5053547;28;20115;-43
2023/01/13 10:21:29;;;;;;;2.28;1.00;;;15.00;99.90;;;;;;5027942;28;20026;-44
2023/01/13 10:24:11;;;;;;;7.75;0.95;;;14.80;99.90;;;;;;5032390;28;20095;-43
2023/01/13 10:27:02;;;;;;;2.47;0.88;;;14.80;99.90;;;;;;5033322;28;20018;-39
2023/01/13 10:29:29;;;;;;;3.60;0.77;;;14.90;99.90;;;;;;5042847;28;20460;-41
2023/01/13 10:31:56;;;;;;;4.38;1.30;;;14.10;99.90;;;;;;5052838;28;20036;-38
2023/01/13 10:34:24;;;;;;;6.68;1.10;;;13.50;99.90;;;;;;5035497;28;20021;-41
2023/01/13 10:37:08;;;;;;;3.00;1.40;;;13.00;99.90;;;;;;5052904;28;20102;-44
2023/01/13 10:39:59;;;;;;;6.80;1.20;;;12.50;99.90;;;;;;5034977;28;20503;-41
2023/01/13 10:42:25;;;;;;;4.53;1.00;;;11.90;99.90;;;;;;5042585;28;20392;-40
2023/01/13 10:44:52;;;;;;;5.03;1.10;;;11.60;99.90;;;;;;5053973;28;20077;-39
2023/01/13 10:47:27;;;;;;;5.28;1.35;;;11.50;99.90;;;;;;5052834;28;20029;-42
2023/01/13 10:50:07;;;;;;;4.10;1.45;;;11.30;99.90;;;;;;5052900;28;20025;-43
2023/01/13 10:52:37;;;;;;;8.90;1.60;;;11.30;99.90;;;;;;5051826;28;20832;-40
2023/01/13 10:55:22;;;;;;;6.53;1.58;;;11.30;99.90;;;;;;5052102;28;20388;-43
2023/01/13 10:57:47;;;;;;;4.60;1.27;;;11.20;99.90;;;;;;5052425;28;20043;-41
2023/01/13 11:00:29;;;;;;;6.25;1.73;;;11.10;99.90;;;;;;5052689;28;20287;-42
2023/01/13 11:03:13;;;;;;;4.55;1.70;;;11.10;99.90;;;;;;5051977;28;20055;-47
2023/01/13 11:05:39;;;;;;;3.70;1.20;;;11.20;99.90;;;;;;5035537;28;20045;-41
2023/01/13 11:08:18;;;;;;;11.93;2.83;;;11.20;99.90;;;;;;5052459;28;20448;-41
2023/01/13 11:10:47;;;;;;;6.57;1.70;;;11.20;99.90;;;;;;5048824;28;20059;-41
2023/01/13 11:13:24;;;;;;;7.22;1.50;;;11.30;99.90;;;;;;5050835;28;20521;-39
2023/01/13 11:16:15;;;;;;;7.28;1.35;;;11.20;99.90;;;;;;5051690;28;20029;-40
2023/01/13 11:19:01;;;;;;;12.32;1.73;;;11.30;99.90;;;;;;5050473;28;20028;-38
2023/01/13 11:21:48;;;;;;;12.23;1.42;;;11.10;99.90;;;;;;5050218;28;20033;-39
2023/01/13 11:24:38;;;;;;;8.07;1.63;;;10.90;99.90;;;;;;5050746;28;20069;-41
2023/01/13 11:27:32;;;;;;;7.70;1.98;;;10.80;99.90;;;;;;5037551;28;20041;-44
2023/01/13 11:30:30;;;;;;;5.63;1.40;;;10.80;99.90;;;;;;5052348;28;20025;-42
2023/01/13 11:33:13;;;;;;;7.70;1.35;;;10.80;99.90;;;;;;5050813;28;20039;-40
2023/01/13 11:36:06;;;;;;;5.50;1.27;;;10.80;99.90;;;;;;5031943;28;20493;-38
2023/01/13 11:38:32;;;;;;;8.25;1.70;;;10.80;99.90;;;;;;5042735;28;20033;-42
2023/01/13 11:41:05;;;;;;;7.10;1.52;;;10.70;99.90;;;;;;5051538;28;20036;-42
2023/01/13 11:43:58;;;;;;;7.15;1.90;;;10.70;99.90;;;;;;5050403;28;20507;-43
2023/01/13 11:46:26;;;;;;;14.48;3.05;;;10.70;99.90;;;;;;5051112;28;20017;-43
2023/01/13 11:48:55;;;;;;;4.68;1.58;;;10.70;99.90;;;;;;5050640;28;20025;-44
2023/01/13 11:51:35;;;;;;;12.35;2.17;;;10.80;99.90;;;;;;5051544;28;20017;-39
2023/01/13 11:54:15;;;;;;;6.80;1.33;;;10.90;99.90;;;;;;5040651;28;20454;-40
2023/01/13 11:56:56;;;;;;;14.68;2.28;;;11.00;99.90;;;;;;5041333;28;20056;-41
2023/01/13 11:59:46;;;;;;;4.88;1.38;;;11.10;99.90;;;;;;5052088;28;20029;-41
2023/01/13 12:02:52;;;;;;;4.55;1.45;;;11.20;99.90;;;;;;5048966;28;20501;-43
2023/01/13 12:05:22;;;;;;;4.40;1.43;;;11.20;99.90;;;;;;5051247;28;20040;-42
2023/01/13 12:08:00;;;;;;;10.25;2.28;;;11.20;99.90;;;;;;5050804;28;20385;-39
2023/01/13 12:10:52;;;;;;;5.80;1.58;;;11.10;99.90;;;;;;5050836;28;20044;-41
2023/01/13 12:13:35;;;;;;;11.07;2.08;;;11.10;99.90;;;;;;5050800;28;20488;-37
2023/01/13 12:16:13;;;;;;;4.45;1.42;;;11.00;99.90;;;;;;5035354;28;20022;-38
2023/01/13 12:18:44;;;;;;;7.93;1.45;;;11.00;99.90;;;;;;5044955;28;20159;-41
2023/01/13 12:21:31;;;;;;;10.27;1.90;;;11.20;99.90;;;;;;5051116;28;20033;-43
2023/01/13 12:24:28;;;;;;;9.95;2.05;;;11.30;99.90;;;;;;5049946;28;20025;-39
2023/01/13 12:26:59;;;;;;;5.20;1.80;;;11.30;99.90;;;;;;5051714;28;20056;-41
2023/01/13 12:29:34;;;;;;;7.68;1.60;;;11.40;99.90;;;;;;5052254;28;20068;-46
2023/01/13 12:32:02;;;;;;;8.60;1.80;;;11.40;99.90;;;;;;5050785;28;20581;-38
2023/01/13 12:34:49;;;;;;;5.53;1.35;;;11.40;99.90;;;;;;5053253;28;20059;-39
2023/01/13 12:37:31;;;;;;;6.18;1.80;;;11.30;99.90;;;;;;5054529;28;20109;-44
2023/01/13 12:40:34;;;;;;;10.45;1.42;;;11.20;99.90;;;;;;5055838;28;20025;-44
2023/01/13 12:46:41;;;;;;;10.60;1.67;;;11.00;99.90;;;;;;5054367;28;20024;-40
2023/01/13 12:49:16;;;;;;;7.13;1.92;;;11.00;99.90;;;;;;5040753;28;20029;-38
2023/01/13 12:51:48;;;;;;;;;;;11.00;99.90;;;;;;5057215;28;20020;-39
2023/01/13 12:54:38;;;;;;;6.20;1.42;;;11.00;99.90;;;;;;5056155;28;19913;-41
2023/01/13 12:57:15;;;;;;;5.97;1.67;;;11.10;99.90;;;;;;5056331;28;20120;-43
2023/01/13 12:59:47;;;;;;;8.35;1.88;;;11.20;99.90;;;;;;5055325;28;20029;-44
2023/01/13 13:02:14;;;;;;;9.48;2.30;;;11.20;99.90;;;;;;5054309;28;20049;-45
2023/01/13 13:05:12;;;;;;;4.65;1.50;;;11.30;99.90;;;;;;5054559;28;20025;-42
2023/01/13 13:07:45;;;;;;;7.30;1.23;;;11.30;99.90;;;;;;5055377;28;20083;-41
2023/01/13 13:10:16;;;;;;;11.13;1.42;;;11.20;99.90;;;;;;5054831;28;20025;-43
2023/01/13 13:15:32;;;;;;;12.27;2.92;;;11.10;99.90;;;;;;5054884;28;20175;-42
2023/01/13 13:18:01;;;;;;;9.93;1.60;;;11.00;99.90;;;;;;5055098;28;20014;-41
2023/01/13 13:20:54;;;;;;;7.68;1.60;;;11.00;99.90;;;;;;5055084;28;20025;-45
2023/01/13 13:23:32;;;;;;;7.65;1.80;;;10.90;99.90;;;;;;5083391;22;20071;-45
2023/01/13 13:26:24;;;;;;;7.75;3.40;;;10.90;99.90;;;;;;5096758;28;20020;-43
2023/01/13 13:29:24;;;;;;;6.72;2.10;;;11.00;99.90;;;;;;5096362;28;20114;-43
2023/01/13 13:32:22;;;;;;;9.30;2.00;;;11.00;99.90;;;;;;5114531;28;20031;-45
2023/01/13 13:35:06;;;;;;;11.65;1.85;;;11.10;99.90;;;;;;5114894;28;20015;-43
2023/01/13 13:46:45;;;;;;;8.23;2.28;;;11.20;99.90;;;;;;5097884;28;20026;-48
2023/01/13 13:49:15;;;;;;;9.98;1.83;;;11.20;99.90;;;;;;5114728;28;20023;-46
2023/01/13 13:51:59;;;;;;;9.38;2.30;;;11.20;99.90;;;;;;5115253;28;20487;-47
2023/01/13 13:54:25;;;;;;;8.27;1.48;;;11.20;99.90;;;;;;5096304;28;20027;-45
2023/01/13 13:56:51;;;;;;;6.50;2.83;;;11.20;99.90;;;;;;5114724;28;20028;-43
2023/01/13 13:59:26;;;;;;;6.53;1.15;;;11.00;99.90;;;;;;5114784;28;20080;-46
2023/01/13 14:01:59;;;;;;;7.65;1.65;;;10.90;99.90;;;;;;5113699;28;20398;-45
2023/01/13 14:04:29;;;;;;;5.38;1.25;;;10.70;99.90;;;;;;5114460;28;20495;-44